createdAt,value
2024-02-07T00:02:19.574Z,98013.41
2024-02-07T00:06:24.066Z,97999.53
2024-02-07T00:10:27.231Z,97998.53
2024-02-07T00:14:30.267Z,98001.28
2024-02-07T00:18:33.392Z,97996.94
2024-02-07T00:22:38.027Z,97999.56
2024-02-07T00:26:41.127Z,97990.31
2024-02-07T00:30:44.232Z,97985.31
2024-02-07T00:34:47.389Z,97977.81
2024-02-07T00:38:51.780Z,97987.63
2024-02-07T00:42:54.833Z,97981.00
2024-02-07T00:46:57.903Z,97976.00
2024-02-07T00:51:01.029Z,97962.97
2024-02-07T00:55:05.904Z,97958.59
2024-02-07T00:59:08.941Z,97958.59
2024-02-07T01:03:11.984Z,97954.25
2024-02-07T01:07:15.107Z,97959.47
2024-02-07T01:11:19.570Z,97958.09
2024-02-07T01:15:22.627Z,97953.03
2024-02-07T01:19:25.943Z,97955.56
2024-02-07T01:23:29.030Z,97949.34
2024-02-07T01:27:33.378Z,97950.19
2024-02-07T01:31:36.458Z,97949.19
2024-02-07T01:35:39.460Z,97936.03
2024-02-07T01:39:42.487Z,97932.25
2024-02-07T01:43:47.266Z,97928.63
2024-02-07T01:47:50.691Z,97921.75
2024-02-07T01:51:53.781Z,97924.38
2024-02-07T01:55:58.038Z,97933.09
2024-02-07T02:00:02.657Z,97920.06
2024-02-07T02:04:15.097Z,97907.19
2024-02-07T02:08:18.238Z,97903.91
2024-02-07T02:12:21.387Z,97907.38
2024-02-07T02:16:25.798Z,97889.88
2024-02-07T02:20:30.236Z,97873.31
2024-02-07T02:24:49.668Z,97869.91
2024-02-07T02:29:05.880Z,97874.25
2024-02-07T02:33:14.101Z,97878.22
2024-02-07T02:37:17.375Z,97870.56
2024-02-07T02:41:20.910Z,97861.16
2024-02-07T02:45:23.963Z,97862.16
2024-02-07T02:49:28.413Z,97863.00
2024-02-07T02:53:33.980Z,97850.06
2024-02-07T02:57:37.468Z,97850.06
2024-02-07T03:01:40.572Z,97834.44
2024-02-07T03:05:59.301Z,97836.25
2024-02-07T03:10:05.872Z,97847.38
2024-02-07T03:14:08.917Z,97831.06
2024-02-07T03:18:12.838Z,97814.84
2024-02-07T03:22:18.792Z,97814.06
2024-02-07T03:26:22.215Z,97805.50
2024-02-07T03:30:25.457Z,97809.84
2024-02-07T03:34:28.614Z,97796.78
2024-02-07T03:38:33.048Z,97793.41
2024-02-07T03:42:37.469Z,97776.09
2024-02-07T03:46:41.431Z,97779.47
2024-02-07T03:50:44.615Z,97771.56
2024-02-07T03:54:51.970Z,97768.88
2024-02-07T03:58:55.082Z,97761.25
2024-02-07T04:02:58.689Z,97759.38
2024-02-07T04:07:01.925Z,97754.00
2024-02-07T04:11:08.958Z,97745.00
2024-02-07T04:15:30.007Z,97749.16
2024-02-07T04:19:50.539Z,97749.06
2024-02-07T04:24:11.097Z,97748.88
2024-02-07T04:28:32.764Z,97752.16
2024-02-07T04:32:53.127Z,97748.53
2024-02-07T04:37:13.532Z,97747.53
2024-02-07T04:41:33.808Z,97736.28
2024-02-07T04:45:55.926Z,97741.50
2024-02-07T04:50:17.139Z,97732.56
2024-02-07T04:54:37.814Z,97722.00
2024-02-07T04:58:58.316Z,97730.41
2024-02-07T05:03:20.242Z,97732.41
2024-02-07T05:07:40.690Z,97739.28
2024-02-07T05:12:01.009Z,97729.88
2024-02-07T05:16:04.077Z,97727.38
2024-02-07T05:20:09.518Z,97717.78
2024-02-07T05:24:12.646Z,97721.41
2024-02-07T05:28:16.189Z,97709.47
2024-02-07T05:32:19.731Z,97703.66
2024-02-07T05:36:24.166Z,97702.06
2024-02-07T05:40:27.417Z,97698.66
2024-02-07T05:44:30.511Z,97683.00
2024-02-07T05:48:34.229Z,97682.09
2024-02-07T05:52:39.739Z,97683.75
2024-02-07T05:56:43.098Z,97695.94
2024-02-07T06:00:46.171Z,97697.63
2024-02-07T06:04:52.354Z,97694.00
2024-02-07T06:08:58.639Z,97687.78
2024-02-07T06:13:01.711Z,97689.53
2024-02-07T06:17:05.009Z,97697.28
2024-02-07T06:21:08.239Z,97696.28
2024-02-07T06:25:12.793Z,97695.28
2024-02-07T06:29:15.781Z,97696.09
2024-02-07T06:33:19.059Z,97706.50
2024-02-07T06:37:22.226Z,97701.50
2024-02-07T06:41:26.689Z,97693.59
2024-02-07T06:45:29.723Z,97697.78
2024-02-07T06:49:37.447Z,97701.16
2024-02-07T06:53:40.490Z,97694.16
2024-02-07T06:57:44.983Z,97696.84
2024-02-07T07:01:48.508Z,97689.88
2024-02-07T07:05:51.665Z,97682.91
2024-02-07T07:09:54.706Z,97681.13
2024-02-07T07:14:02.492Z,97678.44
2024-02-07T07:18:06.761Z,97673.97
2024-02-07T07:22:09.884Z,97680.78
2024-02-07T07:26:12.921Z,97676.28
2024-02-07T07:30:17.706Z,97667.34
2024-02-07T07:34:20.868Z,97669.84
2024-02-07T07:38:23.956Z,97662.72
2024-02-07T07:42:27.002Z,97671.00
2024-02-07T07:46:31.495Z,97665.44
2024-02-07T07:50:34.631Z,97671.31
2024-02-07T07:54:38.469Z,97682.41
2024-02-07T07:58:48.934Z,97676.16
2024-02-07T08:02:57.059Z,97672.44
2024-02-07T08:07:00.062Z,97661.84
2024-02-07T08:11:05.082Z,97661.66
2024-02-07T08:15:08.684Z,97662.31
2024-02-07T08:19:15.813Z,97656.09
2024-02-07T08:23:18.945Z,97657.75
2024-02-07T08:27:22.075Z,97657.75
2024-02-07T08:31:25.194Z,97647.34
2024-02-07T08:35:29.822Z,97636.91
2024-02-07T08:39:33.060Z,97639.41
2024-02-07T08:43:36.072Z,97636.72
2024-02-07T08:47:39.127Z,97622.56
2024-02-07T08:51:44.206Z,97617.16
2024-02-07T08:55:47.269Z,97615.31
2024-02-07T08:59:50.266Z,97615.09
2024-02-07T09:03:53.346Z,97609.72
2024-02-07T09:07:57.800Z,97595.53
2024-02-07T09:12:00.833Z,97603.09
2024-02-07T09:16:03.877Z,97602.78
2024-02-07T09:20:08.469Z,97600.00
2024-02-07T09:24:12.993Z,97598.78
2024-02-07T09:28:16.050Z,97595.91
2024-02-07T09:32:19.691Z,97588.72
2024-02-07T09:36:22.780Z,97579.66
2024-02-07T09:40:27.325Z,97568.81
2024-02-07T09:44:32.745Z,97571.97
2024-02-07T09:48:36.219Z,97569.94
2024-02-07T09:52:41.392Z,97557.41
2024-02-07T09:56:47.331Z,97564.13
2024-02-07T10:00:52.604Z,97556.81
2024-02-07T10:04:58.272Z,97562.78
2024-02-07T10:09:02.395Z,97559.31
2024-02-07T10:13:07.378Z,97569.47
2024-02-07T10:17:10.672Z,97566.66
2024-02-07T10:21:13.748Z,97568.16
2024-02-07T10:25:18.646Z,97567.94
2024-02-07T10:29:26.279Z,97571.31
2024-02-07T10:33:40.933Z,97573.00
2024-02-07T10:37:45.690Z,97558.13
2024-02-07T10:41:48.778Z,97557.31
2024-02-07T10:46:01.369Z,97549.47
2024-02-07T10:50:06.329Z,97550.41
2024-02-07T10:54:10.691Z,97534.72
2024-02-07T10:58:19.071Z,97531.19
2024-02-07T11:02:24.675Z,97521.97
2024-02-07T11:06:29.160Z,97516.34
2024-02-07T11:10:32.984Z,97513.69
2024-02-07T11:14:37.428Z,97511.19
2024-02-07T11:18:41.847Z,97491.06
2024-02-07T11:22:49.284Z,97483.03
2024-02-07T11:26:52.486Z,97474.34
2024-02-07T11:30:57.453Z,97473.53
2024-02-07T11:35:04.459Z,97466.47
2024-02-07T11:39:16.052Z,97453.91
2024-02-07T11:43:22.602Z,97458.66
2024-02-07T11:47:26.199Z,97443.81
2024-02-07T11:51:35.225Z,97433.94
2024-02-07T11:55:42.900Z,97431.22
2024-02-07T11:59:46.438Z,97427.41
2024-02-07T12:03:56.610Z,97432.44
2024-02-07T12:08:01.483Z,97424.59
2024-02-07T12:12:05.141Z,97423.41
2024-02-07T12:16:12.682Z,97411.41
2024-02-07T12:20:17.256Z,97396.31
2024-02-07T12:24:22.962Z,97401.09
2024-02-07T12:28:26.871Z,97422.88
2024-02-07T12:32:31.006Z,97379.88
2024-02-07T12:36:36.324Z,97376.19
2024-02-07T12:40:40.758Z,97381.22
2024-02-07T12:44:44.032Z,97390.03
2024-02-07T12:48:47.510Z,97367.16
2024-02-07T12:52:50.948Z,97359.19
2024-02-07T12:56:55.853Z,97345.25
2024-02-07T13:01:03.069Z,97358.00
2024-02-07T13:05:07.441Z,97346.19
2024-02-07T13:09:10.472Z,97343.97
2024-02-07T13:13:14.947Z,97320.69
2024-02-07T13:17:18.000Z,97315.47
2024-02-07T13:21:21.090Z,97305.56
2024-02-07T13:25:25.443Z,97308.53
2024-02-07T13:29:30.043Z,97307.44
2024-02-07T13:33:33.190Z,97296.25
2024-02-07T13:37:36.228Z,97295.41
2024-02-07T13:41:39.253Z,97286.00
2024-02-07T13:45:43.692Z,97284.22
2024-02-07T13:49:46.874Z,97272.75
2024-02-07T13:53:50.046Z,97270.84
2024-02-07T13:57:53.014Z,97253.44
2024-02-07T14:01:57.544Z,97246.31
2024-02-07T14:06:03.524Z,97242.72
2024-02-07T14:10:06.895Z,97235.56
2024-02-07T14:14:10.327Z,97226.50
2024-02-07T14:18:14.860Z,97226.81
2024-02-07T14:22:18.092Z,97216.88
2024-02-07T14:26:21.438Z,97216.28
2024-02-07T14:30:28.116Z,97208.41
2024-02-07T14:34:32.714Z,97200.81
2024-02-07T14:38:36.917Z,97204.56
2024-02-07T14:42:39.936Z,97185.25
2024-02-07T14:46:42.979Z,97178.09
2024-02-07T14:50:47.537Z,97159.38
2024-02-07T14:54:50.969Z,97171.03
2024-02-07T14:58:54.033Z,97162.19
2024-02-07T15:02:57.037Z,97153.09
2024-02-07T15:07:01.527Z,97155.47
2024-02-07T15:11:05.696Z,97151.44
2024-02-07T15:15:09.485Z,97140.69
2024-02-07T15:19:12.536Z,97130.34
2024-02-07T15:23:17.659Z,97142.78
2024-02-07T15:27:20.626Z,97129.09
2024-02-07T15:31:23.644Z,97123.03
2024-02-07T15:35:26.726Z,97123.28
2024-02-07T15:39:31.527Z,97112.06
2024-02-07T15:43:35.306Z,97121.16
2024-02-07T15:47:38.384Z,97117.97
2024-02-07T15:51:41.391Z,97115.47
2024-02-07T15:55:45.824Z,97096.72
2024-02-07T15:59:48.802Z,97099.91
2024-02-07T16:03:52.159Z,97088.44
2024-02-07T16:07:55.367Z,97099.78
2024-02-07T16:11:59.836Z,97086.28
2024-02-07T16:16:02.906Z,97076.03
2024-02-07T16:20:09.396Z,97057.13
2024-02-07T16:24:12.564Z,97061.44
2024-02-07T16:28:16.933Z,97077.19
2024-02-07T16:32:20.083Z,97067.19
2024-02-07T16:36:23.116Z,97072.00
2024-02-07T16:40:27.348Z,97071.16
2024-02-07T16:44:32.023Z,97074.06
2024-02-07T16:48:35.139Z,97066.56
2024-02-07T16:52:38.259Z,97066.00
2024-02-07T16:56:41.646Z,97063.75
2024-02-07T17:00:47.500Z,97067.56
2024-02-07T17:04:50.685Z,97055.44
2024-02-07T17:08:53.892Z,97055.94
2024-02-07T17:12:57.150Z,97053.44
2024-02-07T17:17:03.477Z,97060.75
2024-02-07T17:21:07.479Z,97067.19
2024-02-07T17:25:11.930Z,97062.44
2024-02-07T17:29:14.903Z,97058.44
2024-02-07T17:33:19.661Z,97056.19
2024-02-07T17:37:22.828Z,97055.63
2024-02-07T17:41:25.896Z,97057.78
2024-02-07T17:45:29.045Z,97054.59
2024-02-07T17:49:33.404Z,97054.03
2024-02-07T17:53:36.525Z,97043.28
2024-02-07T17:57:39.505Z,97048.50
2024-02-07T18:01:42.569Z,97043.78
2024-02-07T18:05:47.077Z,97040.47
2024-02-07T18:09:50.297Z,97039.75
2024-02-07T18:13:54.198Z,97034.88
2024-02-07T18:17:57.207Z,97018.34
2024-02-07T18:27:18.704Z,97021.72
2024-02-07T18:31:24.172Z,97019.84
2024-02-07T18:35:29.418Z,97009.84
2024-02-07T18:39:33.777Z,97007.03
2024-02-07T18:43:36.852Z,97005.59
2024-02-07T18:47:40.074Z,97008.50
2024-02-07T18:51:43.167Z,97002.53
2024-02-07T18:55:47.507Z,96994.00
2024-02-07T18:59:50.577Z,96995.88
2024-02-07T19:03:53.493Z,96996.75
2024-02-07T19:07:56.817Z,97001.38
2024-02-07T19:12:01.498Z,96991.16
2024-02-07T19:16:04.807Z,96980.94
2024-02-07T19:20:09.390Z,96983.78
2024-02-07T19:24:18.515Z,96980.56
2024-02-07T19:28:22.730Z,96978.09
2024-02-07T19:32:26.111Z,96973.13
2024-02-07T19:36:29.090Z,96971.44
2024-02-07T19:40:36.243Z,96965.50
2024-02-07T19:44:40.668Z,96968.38
2024-02-07T19:48:43.972Z,96961.59
2024-02-07T19:52:46.963Z,96973.84
2024-02-07T19:56:50.210Z,96973.84
2024-02-07T20:00:54.577Z,96970.53
2024-02-07T20:04:57.595Z,96975.75
2024-02-07T20:09:00.812Z,96962.81
2024-02-07T20:13:03.717Z,96965.53
2024-02-07T20:17:09.276Z,96962.22
2024-02-07T20:21:12.943Z,96961.22
2024-02-07T20:25:17.052Z,96975.31
2024-02-07T20:29:20.332Z,96965.06
2024-02-07T20:33:24.874Z,96962.69
2024-02-07T20:37:28.357Z,96958.78
2024-02-07T20:41:40.509Z,96962.34
2024-02-07T20:45:43.918Z,96961.78
2024-02-07T20:49:48.628Z,96961.19
2024-02-07T20:53:55.089Z,96955.59
2024-02-07T20:57:58.329Z,96969.50
2024-02-07T21:02:01.752Z,96962.03
2024-02-07T21:06:06.938Z,96968.19
2024-02-07T21:10:10.601Z,96959.66
2024-02-07T21:14:15.008Z,96952.75
2024-02-07T21:18:18.525Z,96964.91
2024-02-07T21:22:23.487Z,96961.69
2024-02-07T21:26:26.648Z,96963.44
2024-02-07T21:30:29.836Z,96965.34
2024-02-07T21:34:33.130Z,96974.94
2024-02-07T21:38:37.863Z,96965.56
2024-02-07T21:42:41.289Z,96968.31
2024-02-07T21:46:44.788Z,96968.31
2024-02-07T21:50:48.243Z,96961.78
2024-02-07T21:54:53.099Z,96965.47
2024-02-07T21:58:56.292Z,96970.94
2024-02-07T22:02:59.524Z,96973.66
2024-02-07T22:07:03.113Z,96981.03
2024-02-07T22:11:08.258Z,96989.00
2024-02-07T22:15:11.968Z,96984.81
2024-02-07T22:19:15.720Z,96977.09
2024-02-07T22:23:18.952Z,96990.41
2024-02-07T22:27:23.831Z,96986.13
2024-02-07T22:31:30.857Z,96987.19
2024-02-07T22:35:36.099Z,96977.22
2024-02-07T22:39:39.365Z,96973.06
2024-02-07T22:43:43.936Z,96972.22
2024-02-07T22:47:47.268Z,96974.13
2024-02-07T22:51:53.363Z,96969.84
2024-02-07T22:56:00.189Z,96970.56
2024-02-07T23:00:08.206Z,96964.59
2024-02-07T23:04:16.634Z,96968.91
2024-02-07T23:08:20.345Z,96967.22
2024-02-07T23:12:23.739Z,96969.84
2024-02-07T23:16:28.396Z,96965.56
2024-02-07T23:20:31.738Z,96969.97
2024-02-07T23:24:35.257Z,96960.31
2024-02-07T23:28:43.887Z,96971.72
2024-02-07T23:32:49.834Z,96966.03
2024-02-07T23:36:53.476Z,96975.53
2024-02-07T23:40:57.075Z,96974.84
2024-02-07T23:45:07.427Z,96967.94
2024-02-07T23:49:14.616Z,96967.94
2024-02-07T23:53:23.056Z,96976.72
2024-02-07T23:57:28.459Z,96974.84
